sensor_id;sensor_type;location;lat;lon;timestamp;P1;durP1;ratioP1;P2;durP2;ratioP2
1585;SDS011;786;48.718;9.514;2024-03-22T00:01:43;18.17;;;11.35;;
1585;SDS011;786;48.718;9.514;2024-03-22T00:04:09;15.82;;;10.85;;
1585;SDS011;786;48.718;9.514;2024-03-22T00:06:36;15.82;;;10.98;;
1585;SDS011;786;48.718;9.514;2024-03-22T00:09:03;14.60;;;10.07;;
1585;SDS011;786;48.718;9.514;2024-03-22T00:11:28;16.77;;;12.02;;
1585;SDS011;786;48.718;9.514;2024-03-22T00:13:54;15.52;;;10.65;;
1585;SDS011;786;48.718;9.514;2024-03-22T00:16:20;17.80;;;12.40;;
1585;SDS011;786;48.718;9.514;2024-03-22T00:18:46;14.65;;;10.38;;
1585;SDS011;786;48.718;9.514;2024-03-22T00:21:11;20.23;;;13.13;;
1585;SDS011;786;48.718;9.514;2024-03-22T00:23:39;17.83;;;12.30;;
1585;SDS011;786;48.718;9.514;2024-03-22T00:26:04;15.57;;;11.93;;
1585;SDS011;786;48.718;9.514;2024-03-22T00:28:31;17.92;;;12.40;;
1585;SDS011;786;48.718;9.514;2024-03-22T00:30:56;15.70;;;11.77;;
1585;SDS011;786;48.718;9.514;2024-03-22T00:33:23;16.60;;;11.10;;
1585;SDS011;786;48.718;9.514;2024-03-22T00:35:48;12.73;;;9.30;;
1585;SDS011;786;48.718;9.514;2024-03-22T00:38:14;16.83;;;11.75;;
1585;SDS011;786;48.718;9.514;2024-03-22T00:40:41;17.63;;;12.52;;
1585;SDS011;786;48.718;9.514;2024-03-22T00:43:07;13.02;;;10.55;;
1585;SDS011;786;48.718;9.514;2024-03-22T00:45:33;16.30;;;10.55;;
1585;SDS011;786;48.718;9.514;2024-03-22T00:47:59;15.30;;;9.52;;
1585;SDS011;786;48.718;9.514;2024-03-22T00:50:25;15.55;;;10.63;;
1585;SDS011;786;48.718;9.514;2024-03-22T00:52:51;16.10;;;9.88;;
1585;SDS011;786;48.718;9.514;2024-03-22T00:55:17;16.83;;;11.43;;
1585;SDS011;786;48.718;9.514;2024-03-22T00:57:45;14.27;;;10.07;;
1585;SDS011;786;48.718;9.514;2024-03-22T01:00:12;17.15;;;10.77;;
1585;SDS011;786;48.718;9.514;2024-03-22T01:02:39;14.27;;;10.25;;
1585;SDS011;786;48.718;9.514;2024-03-22T01:05:05;15.15;;;9.63;;
1585;SDS011;786;48.718;9.514;2024-03-22T01:07:31;15.98;;;9.70;;
1585;SDS011;786;48.718;9.514;2024-03-22T01:09:57;14.32;;;10.85;;
1585;SDS011;786;48.718;9.514;2024-03-22T01:12:23;16.17;;;10.50;;
1585;SDS011;786;48.718;9.514;2024-03-22T01:14:50;15.63;;;10.52;;
1585;SDS011;786;48.718;9.514;2024-03-22T01:17:16;15.10;;;10.68;;
1585;SDS011;786;48.718;9.514;2024-03-22T01:19:41;14.32;;;10.20;;
1585;SDS011;786;48.718;9.514;2024-03-22T01:22:08;12.95;;;8.90;;
1585;SDS011;786;48.718;9.514;2024-03-22T01:24:33;16.33;;;11.98;;
1585;SDS011;786;48.718;9.514;2024-03-22T01:26:59;16.25;;;9.93;;
1585;SDS011;786;48.718;9.514;2024-03-22T01:29:25;14.93;;;10.52;;
1585;SDS011;786;48.718;9.514;2024-03-22T01:31:54;13.65;;;10.43;;
1585;SDS011;786;48.718;9.514;2024-03-22T01:34:19;11.40;;;9.70;;
1585;SDS011;786;48.718;9.514;2024-03-22T01:36:45;14.60;;;10.80;;
1585;SDS011;786;48.718;9.514;2024-03-22T01:39:11;18.98;;;10.95;;
1585;SDS011;786;48.718;9.514;2024-03-22T01:41:39;16.73;;;10.55;;
1585;SDS011;786;48.718;9.514;2024-03-22T01:44:04;13.23;;;9.68;;
1585;SDS011;786;48.718;9.514;2024-03-22T01:46:31;25.67;;;20.35;;
1585;SDS011;786;48.718;9.514;2024-03-22T01:48:57;237.63;;;166.18;;
1585;SDS011;786;48.718;9.514;2024-03-22T01:51:24;280.05;;;202.63;;
1585;SDS011;786;48.718;9.514;2024-03-22T01:53:49;179.57;;;132.13;;
1585;SDS011;786;48.718;9.514;2024-03-22T01:56:17;210.35;;;146.00;;
1585;SDS011;786;48.718;9.514;2024-03-22T01:58:42;242.00;;;164.95;;
1585;SDS011;786;48.718;9.514;2024-03-22T02:01:09;295.75;;;199.35;;
1585;SDS011;786;48.718;9.514;2024-03-22T02:03:34;353.40;;;243.18;;
1585;SDS011;786;48.718;9.514;2024-03-22T02:06:02;403.10;;;292.85;;
1585;SDS011;786;48.718;9.514;2024-03-22T02:08:27;446.15;;;327.25;;
1585;SDS011;786;48.718;9.514;2024-03-22T02:10:54;531.00;;;388.95;;
1585;SDS011;786;48.718;9.514;2024-03-22T02:13:19;541.05;;;421.95;;
1585;SDS011;786;48.718;9.514;2024-03-22T02:15:46;521.63;;;366.83;;
1585;SDS011;786;48.718;9.514;2024-03-22T02:18:11;520.03;;;353.08;;
1585;SDS011;786;48.718;9.514;2024-03-22T02:20:37;534.47;;;352.50;;
1585;SDS011;786;48.718;9.514;2024-03-22T02:23:04;597.25;;;390.23;;
1585;SDS011;786;48.718;9.514;2024-03-22T02:25:32;12.55;;;9.43;;
1585;SDS011;786;48.718;9.514;2024-03-22T02:27:57;16.33;;;9.50;;
1585;SDS011;786;48.718;9.514;2024-03-22T02:30:23;254.82;;;190.95;;
1585;SDS011;786;48.718;9.514;2024-03-22T02:32:49;17.67;;;11.23;;
1585;SDS011;786;48.718;9.514;2024-03-22T02:35:15;15.65;;;9.73;;
1585;SDS011;786;48.718;9.514;2024-03-22T02:37:40;16.10;;;10.32;;
1585;SDS011;786;48.718;9.514;2024-03-22T02:40:07;16.52;;;10.40;;
1585;SDS011;786;48.718;9.514;2024-03-22T02:42:35;19.38;;;11.02;;
1585;SDS011;786;48.718;9.514;2024-03-22T02:45:01;16.85;;;10.48;;
1585;SDS011;786;48.718;9.514;2024-03-22T02:47:26;16.98;;;11.75;;
1585;SDS011;786;48.718;9.514;2024-03-22T02:49:53;18.23;;;12.55;;
1585;SDS011;786;48.718;9.514;2024-03-22T02:52:18;19.98;;;11.45;;
1585;SDS011;786;48.718;9.514;2024-03-22T02:54:47;14.85;;;11.65;;
1585;SDS011;786;48.718;9.514;2024-03-22T02:57:12;16.95;;;10.57;;
1585;SDS011;786;48.718;9.514;2024-03-22T02:59:40;15.43;;;10.80;;
1585;SDS011;786;48.718;9.514;2024-03-22T03:02:05;12.80;;;8.82;;
1585;SDS011;786;48.718;9.514;2024-03-22T03:04:32;12.73;;;9.48;;
1585;SDS011;786;48.718;9.514;2024-03-22T03:06:57;16.00;;;9.73;;
1585;SDS011;786;48.718;9.514;2024-03-22T03:09:23;15.38;;;10.35;;
1585;SDS011;786;48.718;9.514;2024-03-22T03:11:49;19.20;;;11.70;;
1585;SDS011;786;48.718;9.514;2024-03-22T03:14:15;19.17;;;11.70;;
1585;SDS011;786;48.718;9.514;2024-03-22T03:16:42;15.80;;;11.40;;
1585;SDS011;786;48.718;9.514;2024-03-22T03:19:08;22.77;;;11.75;;
1585;SDS011;786;48.718;9.514;2024-03-22T03:21:33;16.58;;;10.10;;
1585;SDS011;786;48.718;9.514;2024-03-22T03:24:00;13.77;;;9.20;;
1585;SDS011;786;48.718;9.514;2024-03-22T03:26:25;14.05;;;11.25;;
1585;SDS011;786;48.718;9.514;2024-03-22T03:28:51;15.05;;;10.32;;
1585;SDS011;786;48.718;9.514;2024-03-22T03:31:17;15.98;;;10.60;;
1585;SDS011;786;48.718;9.514;2024-03-22T03:33:44;14.23;;;9.13;;
1585;SDS011;786;48.718;9.514;2024-03-22T03:36:10;14.35;;;8.95;;
1585;SDS011;786;48.718;9.514;2024-03-22T03:38:36;16.58;;;8.95;;
1585;SDS011;786;48.718;9.514;2024-03-22T03:41:02;11.48;;;8.70;;
1585;SDS011;786;48.718;9.514;2024-03-22T03:43:29;16.58;;;11.70;;
1585;SDS011;786;48.718;9.514;2024-03-22T03:45:55;16.27;;;10.85;;
1585;SDS011;786;48.718;9.514;2024-03-22T03:48:21;18.55;;;11.07;;
1585;SDS011;786;48.718;9.514;2024-03-22T03:50:52;18.73;;;11.68;;
1585;SDS011;786;48.718;9.514;2024-03-22T03:53:19;18.83;;;13.20;;
1585;SDS011;786;48.718;9.514;2024-03-22T03:55:45;17.10;;;10.32;;
1585;SDS011;786;48.718;9.514;2024-03-22T03:58:12;14.75;;;10.05;;
1585;SDS011;786;48.718;9.514;2024-03-22T04:00:37;22.25;;;11.80;;
1585;SDS011;786;48.718;9.514;2024-03-22T04:03:03;17.35;;;9.65;;
1585;SDS011;786;48.718;9.514;2024-03-22T04:05:29;18.27;;;10.70;;
1585;SDS011;786;48.718;9.514;2024-03-22T04:07:57;16.65;;;9.80;;
1585;SDS011;786;48.718;9.514;2024-03-22T04:10:22;19.98;;;10.82;;
1585;SDS011;786;48.718;9.514;2024-03-22T04:12:48;19.73;;;12.93;;
1585;SDS011;786;48.718;9.514;2024-03-22T04:15:14;18.42;;;10.80;;
1585;SDS011;786;48.718;9.514;2024-03-22T04:17:40;15.82;;;10.93;;
1585;SDS011;786;48.718;9.514;2024-03-22T04:20:06;17.67;;;10.40;;
1585;SDS011;786;48.718;9.514;2024-03-22T04:22:33;13.35;;;9.23;;
1585;SDS011;786;48.718;9.514;2024-03-22T04:25:00;15.75;;;10.23;;
1585;SDS011;786;48.718;9.514;2024-03-22T04:27:26;15.68;;;10.82;;
1585;SDS011;786;48.718;9.514;2024-03-22T04:29:52;14.85;;;10.85;;
1585;SDS011;786;48.718;9.514;2024-03-22T04:32:18;18.48;;;11.82;;
1585;SDS011;786;48.718;9.514;2024-03-22T04:34:43;19.48;;;10.98;;
1585;SDS011;786;48.718;9.514;2024-03-22T04:37:10;13.65;;;9.65;;
1585;SDS011;786;48.718;9.514;2024-03-22T04:39:37;17.15;;;10.30;;
1585;SDS011;786;48.718;9.514;2024-03-22T04:42:05;18.17;;;10.35;;
1585;SDS011;786;48.718;9.514;2024-03-22T04:44:32;18.38;;;10.95;;
1585;SDS011;786;48.718;9.514;2024-03-22T04:46:58;17.13;;;10.50;;
1585;SDS011;786;48.718;9.514;2024-03-22T04:49:24;17.77;;;11.80;;
1585;SDS011;786;48.718;9.514;2024-03-22T04:51:50;16.42;;;11.82;;
1585;SDS011;786;48.718;9.514;2024-03-22T04:54:15;20.35;;;12.10;;
1585;SDS011;786;48.718;9.514;2024-03-22T04:56:42;19.13;;;11.48;;
1585;SDS011;786;48.718;9.514;2024-03-22T04:59:08;17.45;;;11.38;;
1585;SDS011;786;48.718;9.514;2024-03-22T05:01:35;15.77;;;9.48;;
1585;SDS011;786;48.718;9.514;2024-03-22T05:04:00;17.35;;;10.13;;
1585;SDS011;786;48.718;9.514;2024-03-22T05:06:26;16.13;;;11.55;;
1585;SDS011;786;48.718;9.514;2024-03-22T05:08:52;21.15;;;12.10;;
1585;SDS011;786;48.718;9.514;2024-03-22T05:11:18;19.80;;;11.30;;
1585;SDS011;786;48.718;9.514;2024-03-22T05:13:44;19.35;;;12.45;;
1585;SDS011;786;48.718;9.514;2024-03-22T05:16:13;19.23;;;11.48;;
1585;SDS011;786;48.718;9.514;2024-03-22T05:18:38;18.95;;;10.52;;
1585;SDS011;786;48.718;9.514;2024-03-22T05:21:04;26.90;;;13.25;;
1585;SDS011;786;48.718;9.514;2024-03-22T05:23:31;20.02;;;12.75;;
1585;SDS011;786;48.718;9.514;2024-03-22T05:25:57;23.73;;;12.18;;
1585;SDS011;786;48.718;9.514;2024-03-22T05:28:24;21.30;;;11.75;;
1585;SDS011;786;48.718;9.514;2024-03-22T05:30:50;23.13;;;10.90;;
1585;SDS011;786;48.718;9.514;2024-03-22T05:33:17;21.13;;;13.88;;
1585;SDS011;786;48.718;9.514;2024-03-22T05:35:43;16.25;;;9.77;;
1585;SDS011;786;48.718;9.514;2024-03-22T05:38:09;15.00;;;9.48;;
1585;SDS011;786;48.718;9.514;2024-03-22T05:40:35;15.68;;;8.80;;
1585;SDS011;786;48.718;9.514;2024-03-22T05:43:03;18.80;;;9.80;;
1585;SDS011;786;48.718;9.514;2024-03-22T05:45:29;16.25;;;10.90;;
1585;SDS011;786;48.718;9.514;2024-03-22T05:47:55;18.88;;;10.60;;
1585;SDS011;786;48.718;9.514;2024-03-22T05:50:22;19.23;;;11.20;;
1585;SDS011;786;48.718;9.514;2024-03-22T05:52:48;16.50;;;10.10;;
1585;SDS011;786;48.718;9.514;2024-03-22T05:55:14;18.92;;;9.88;;
1585;SDS011;786;48.718;9.514;2024-03-22T05:57:40;13.45;;;8.60;;
1585;SDS011;786;48.718;9.514;2024-03-22T06:00:06;14.98;;;9.60;;
1585;SDS011;786;48.718;9.514;2024-03-22T06:02:33;13.20;;;9.52;;
1585;SDS011;786;48.718;9.514;2024-03-22T06:04:58;14.20;;;9.85;;
1585;SDS011;786;48.718;9.514;2024-03-22T06:07:26;14.80;;;10.13;;
1585;SDS011;786;48.718;9.514;2024-03-22T06:09:52;13.85;;;9.77;;
1585;SDS011;786;48.718;9.514;2024-03-22T06:12:18;13.23;;;8.77;;
1585;SDS011;786;48.718;9.514;2024-03-22T06:14:44;13.63;;;9.05;;
1585;SDS011;786;48.718;9.514;2024-03-22T06:17:11;18.52;;;11.77;;
1585;SDS011;786;48.718;9.514;2024-03-22T06:19:37;11.18;;;8.52;;
1585;SDS011;786;48.718;9.514;2024-03-22T06:22:03;11.32;;;8.38;;
1585;SDS011;786;48.718;9.514;2024-03-22T06:24:30;15.95;;;11.57;;
1585;SDS011;786;48.718;9.514;2024-03-22T06:26:56;13.52;;;9.75;;
1585;SDS011;786;48.718;9.514;2024-03-22T06:29:22;14.98;;;10.57;;
1585;SDS011;786;48.718;9.514;2024-03-22T06:31:48;17.60;;;9.77;;
1585;SDS011;786;48.718;9.514;2024-03-22T06:34:15;14.48;;;9.13;;
1585;SDS011;786;48.718;9.514;2024-03-22T06:36:41;13.18;;;8.77;;
1585;SDS011;786;48.718;9.514;2024-03-22T06:39:07;12.88;;;8.73;;
1585;SDS011;786;48.718;9.514;2024-03-22T06:41:36;12.43;;;9.57;;
1585;SDS011;786;48.718;9.514;2024-03-22T06:44:02;11.27;;;8.25;;
1585;SDS011;786;48.718;9.514;2024-03-22T06:46:28;11.63;;;9.38;;
1585;SDS011;786;48.718;9.514;2024-03-22T06:48:54;11.30;;;7.85;;
1585;SDS011;786;48.718;9.514;2024-03-22T06:51:21;13.15;;;9.00;;
1585;SDS011;786;48.718;9.514;2024-03-22T06:53:46;13.10;;;8.43;;
1585;SDS011;786;48.718;9.514;2024-03-22T06:56:12;9.40;;;7.10;;
1585;SDS011;786;48.718;9.514;2024-03-22T06:58:39;11.98;;;8.00;;
1585;SDS011;786;48.718;9.514;2024-03-22T07:01:06;11.13;;;7.85;;
1585;SDS011;786;48.718;9.514;2024-03-22T07:03:31;12.27;;;9.77;;
1585;SDS011;786;48.718;9.514;2024-03-22T07:05:58;14.15;;;8.80;;
1585;SDS011;786;48.718;9.514;2024-03-22T07:08:23;11.02;;;8.35;;
1585;SDS011;786;48.718;9.514;2024-03-22T07:10:50;11.27;;;9.30;;
1585;SDS011;786;48.718;9.514;2024-03-22T07:13:15;11.40;;;8.52;;
1585;SDS011;786;48.718;9.514;2024-03-22T07:15:45;9.82;;;8.82;;
1585;SDS011;786;48.718;9.514;2024-03-22T07:18:10;10.48;;;8.85;;
1585;SDS011;786;48.718;9.514;2024-03-22T07:20:36;10.77;;;8.15;;
1585;SDS011;786;48.718;9.514;2024-03-22T07:23:02;12.18;;;9.52;;
1585;SDS011;786;48.718;9.514;2024-03-22T07:25:29;12.77;;;10.98;;
1585;SDS011;786;48.718;9.514;2024-03-22T07:27:54;12.70;;;10.77;;
1585;SDS011;786;48.718;9.514;2024-03-22T07:30:21;11.43;;;10.27;;
1585;SDS011;786;48.718;9.514;2024-03-22T07:32:48;11.32;;;10.18;;
1585;SDS011;786;48.718;9.514;2024-03-22T07:35:14;10.18;;;9.07;;
1585;SDS011;786;48.718;9.514;2024-03-22T07:37:40;13.23;;;11.05;;
1585;SDS011;786;48.718;9.514;2024-03-22T07:40:06;10.82;;;8.60;;
1585;SDS011;786;48.718;9.514;2024-03-22T07:42:32;12.65;;;10.52;;
1585;SDS011;786;48.718;9.514;2024-03-22T07:44:59;12.95;;;11.05;;
1585;SDS011;786;48.718;9.514;2024-03-22T07:47:24;10.52;;;9.52;;
1585;SDS011;786;48.718;9.514;2024-03-22T07:49:53;12.52;;;11.43;;
1585;SDS011;786;48.718;9.514;2024-03-22T07:52:18;11.48;;;10.30;;
1585;SDS011;786;48.718;9.514;2024-03-22T07:54:45;10.73;;;8.60;;
1585;SDS011;786;48.718;9.514;2024-03-22T07:57:10;11.35;;;10.35;;
1585;SDS011;786;48.718;9.514;2024-03-22T07:59:36;13.30;;;12.10;;
1585;SDS011;786;48.718;9.514;2024-03-22T08:02:02;10.63;;;9.38;;
1585;SDS011;786;48.718;9.514;2024-03-22T08:04:29;12.38;;;11.32;;
1585;SDS011;786;48.718;9.514;2024-03-22T08:06:55;12.40;;;11.32;;
1585;SDS011;786;48.718;9.514;2024-03-22T08:09:22;12.63;;;11.57;;
1585;SDS011;786;48.718;9.514;2024-03-22T08:11:48;10.57;;;9.57;;
1585;SDS011;786;48.718;9.514;2024-03-22T08:14:14;11.32;;;10.07;;
1585;SDS011;786;48.718;9.514;2024-03-22T08:16:41;12.60;;;8.90;;
1585;SDS011;786;48.718;9.514;2024-03-22T08:19:08;10.02;;;8.98;;
1585;SDS011;786;48.718;9.514;2024-03-22T08:21:33;10.48;;;9.38;;
1585;SDS011;786;48.718;9.514;2024-03-22T08:24:03;13.50;;;10.68;;
1585;SDS011;786;48.718;9.514;2024-03-22T08:26:28;10.68;;;9.82;;
1585;SDS011;786;48.718;9.514;2024-03-22T08:28:55;10.43;;;9.32;;
1585;SDS011;786;48.718;9.514;2024-03-22T08:31:20;11.88;;;10.68;;
1585;SDS011;786;48.718;9.514;2024-03-22T08:33:50;11.35;;;10.13;;
1585;SDS011;786;48.718;9.514;2024-03-22T08:36:16;11.52;;;10.50;;
1585;SDS011;786;48.718;9.514;2024-03-22T08:38:42;12.55;;;11.35;;
1585;SDS011;786;48.718;9.514;2024-03-22T08:41:09;10.63;;;9.65;;
1585;SDS011;786;48.718;9.514;2024-03-22T08:43:35;11.85;;;10.65;;
1585;SDS011;786;48.718;9.514;2024-03-22T08:46:00;11.65;;;10.65;;
1585;SDS011;786;48.718;9.514;2024-03-22T08:48:28;12.63;;;11.63;;
1585;SDS011;786;48.718;9.514;2024-03-22T08:50:54;10.85;;;9.85;;
1585;SDS011;786;48.718;9.514;2024-03-22T08:53:20;10.68;;;9.68;;
1585;SDS011;786;48.718;9.514;2024-03-22T08:55:46;10.30;;;9.32;;
1585;SDS011;786;48.718;9.514;2024-03-22T08:58:14;10.90;;;9.85;;
1585;SDS011;786;48.718;9.514;2024-03-22T09:00:40;10.27;;;9.38;;
1585;SDS011;786;48.718;9.514;2024-03-22T09:03:07;9.15;;;8.30;;
1585;SDS011;786;48.718;9.514;2024-03-22T09:05:32;9.90;;;8.93;;
1585;SDS011;786;48.718;9.514;2024-03-22T09:07:59;10.50;;;9.40;;
1585;SDS011;786;48.718;9.514;2024-03-22T09:10:24;15.52;;;8.75;;
1585;SDS011;786;48.718;9.514;2024-03-22T09:12:51;12.13;;;9.65;;
1585;SDS011;786;48.718;9.514;2024-03-22T09:15:18;8.50;;;7.70;;
1585;SDS011;786;48.718;9.514;2024-03-22T09:17:44;8.30;;;7.60;;
1585;SDS011;786;48.718;9.514;2024-03-22T09:20:10;8.75;;;7.25;;
1585;SDS011;786;48.718;9.514;2024-03-22T09:22:37;9.00;;;8.20;;
1585;SDS011;786;48.718;9.514;2024-03-22T09:25:04;9.02;;;8.15;;
1585;SDS011;786;48.718;9.514;2024-03-22T09:27:31;9.75;;;8.90;;
1585;SDS011;786;48.718;9.514;2024-03-22T09:29:56;10.15;;;8.73;;
1585;SDS011;786;48.718;9.514;2024-03-22T09:32:24;8.18;;;7.45;;
1585;SDS011;786;48.718;9.514;2024-03-22T09:34:51;8.05;;;7.35;;
1585;SDS011;786;48.718;9.514;2024-03-22T09:37:18;9.13;;;8.35;;
1585;SDS011;786;48.718;9.514;2024-03-22T09:39:43;8.68;;;7.75;;
1585;SDS011;786;48.718;9.514;2024-03-22T09:42:11;7.45;;;6.80;;
1585;SDS011;786;48.718;9.514;2024-03-22T09:44:38;8.07;;;7.45;;
1585;SDS011;786;48.718;9.514;2024-03-22T09:47:07;8.13;;;7.43;;
1585;SDS011;786;48.718;9.514;2024-03-22T09:49:34;7.75;;;7.05;;
1585;SDS011;786;48.718;9.514;2024-03-22T09:52:00;8.45;;;7.75;;
1585;SDS011;786;48.718;9.514;2024-03-22T09:54:27;8.32;;;7.63;;
1585;SDS011;786;48.718;9.514;2024-03-22T09:56:54;8.93;;;8.13;;
1585;SDS011;786;48.718;9.514;2024-03-22T09:59:21;6.30;;;5.70;;
1585;SDS011;786;48.718;9.514;2024-03-22T10:01:47;6.47;;;6.00;;
1585;SDS011;786;48.718;9.514;2024-03-22T10:04:13;7.60;;;7.00;;
1585;SDS011;786;48.718;9.514;2024-03-22T10:06:41;6.80;;;5.95;;
1585;SDS011;786;48.718;9.514;2024-03-22T10:09:07;6.75;;;5.80;;
1585;SDS011;786;48.718;9.514;2024-03-22T10:11:34;7.75;;;7.15;;
1585;SDS011;786;48.718;9.514;2024-03-22T10:13:59;7.18;;;6.50;;
1585;SDS011;786;48.718;9.514;2024-03-22T10:16:32;6.60;;;6.00;;
1585;SDS011;786;48.718;9.514;2024-03-22T10:18:59;6.78;;;6.05;;
1585;SDS011;786;48.718;9.514;2024-03-22T10:21:25;6.13;;;5.63;;
1585;SDS011;786;48.718;9.514;2024-03-22T10:23:53;4.93;;;4.55;;
1585;SDS011;786;48.718;9.514;2024-03-22T10:26:20;5.30;;;4.90;;
1585;SDS011;786;48.718;9.514;2024-03-22T10:28:45;6.18;;;4.13;;
1585;SDS011;786;48.718;9.514;2024-03-22T10:31:12;5.53;;;5.03;;
1585;SDS011;786;48.718;9.514;2024-03-22T10:33:38;7.45;;;6.85;;
1585;SDS011;786;48.718;9.514;2024-03-22T10:36:05;7.60;;;6.90;;
1585;SDS011;786;48.718;9.514;2024-03-22T10:38:31;7.13;;;6.63;;
1585;SDS011;786;48.718;9.514;2024-03-22T10:40:59;6.90;;;6.18;;
1585;SDS011;786;48.718;9.514;2024-03-22T10:43:25;6.65;;;6.00;;
1585;SDS011;786;48.718;9.514;2024-03-22T10:45:52;5.38;;;4.97;;
1585;SDS011;786;48.718;9.514;2024-03-22T10:48:22;5.25;;;4.85;;
1585;SDS011;786;48.718;9.514;2024-03-22T10:50:50;6.35;;;4.80;;
1585;SDS011;786;48.718;9.514;2024-03-22T10:53:18;4.63;;;4.22;;
1585;SDS011;786;48.718;9.514;2024-03-22T10:55:46;4.90;;;4.50;;
1585;SDS011;786;48.718;9.514;2024-03-22T10:58:15;5.05;;;4.65;;
1585;SDS011;786;48.718;9.514;2024-03-22T11:00:42;6.60;;;6.00;;
1585;SDS011;786;48.718;9.514;2024-03-22T11:03:08;7.22;;;6.63;;
1585;SDS011;786;48.718;9.514;2024-03-22T11:05:34;6.85;;;6.15;;
1585;SDS011;786;48.718;9.514;2024-03-22T11:08:10;7.25;;;6.50;;
1585;SDS011;786;48.718;9.514;2024-03-22T11:10:36;6.70;;;5.93;;
1585;SDS011;786;48.718;9.514;2024-03-22T11:13:02;5.93;;;5.43;;
1585;SDS011;786;48.718;9.514;2024-03-22T11:15:30;6.72;;;6.22;;
1585;SDS011;786;48.718;9.514;2024-03-22T11:17:56;5.45;;;4.93;;
1585;SDS011;786;48.718;9.514;2024-03-22T11:20:23;6.68;;;5.40;;
1585;SDS011;786;48.718;9.514;2024-03-22T11:22:48;5.53;;;5.03;;
1585;SDS011;786;48.718;9.514;2024-03-22T11:25:15;6.38;;;4.90;;
1585;SDS011;786;48.718;9.514;2024-03-22T11:27:40;7.55;;;6.95;;
1585;SDS011;786;48.718;9.514;2024-03-22T11:30:07;6.25;;;5.85;;
1585;SDS011;786;48.718;9.514;2024-03-22T11:32:34;6.80;;;6.20;;
1585;SDS011;786;48.718;9.514;2024-03-22T11:35:07;5.50;;;5.00;;
1585;SDS011;786;48.718;9.514;2024-03-22T11:37:34;6.90;;;6.40;;
1585;SDS011;786;48.718;9.514;2024-03-22T11:40:00;1485.72;;;544.53;;
1585;SDS011;786;48.718;9.514;2024-03-22T11:42:28;1801.55;;;586.63;;
1585;SDS011;786;48.718;9.514;2024-03-22T11:44:54;1779.88;;;607.22;;
1585;SDS011;786;48.718;9.514;2024-03-22T11:47:20;1607.88;;;577.60;;
1585;SDS011;786;48.718;9.514;2024-03-22T11:49:47;1978.72;;;616.08;;
1585;SDS011;786;48.718;9.514;2024-03-22T11:52:13;1922.13;;;598.90;;
1585;SDS011;786;48.718;9.514;2024-03-22T11:54:39;1938.57;;;600.20;;
1585;SDS011;786;48.718;9.514;2024-03-22T11:57:05;1988.75;;;642.25;;
1585;SDS011;786;48.718;9.514;2024-03-22T11:59:31;1972.38;;;636.03;;
1585;SDS011;786;48.718;9.514;2024-03-22T12:01:57;1999.90;;;684.97;;
1585;SDS011;786;48.718;9.514;2024-03-22T12:04:23;1999.90;;;682.65;;
1585;SDS011;786;48.718;9.514;2024-03-22T12:06:50;1977.22;;;662.13;;
1585;SDS011;786;48.718;9.514;2024-03-22T12:09:18;1985.72;;;681.95;;
1585;SDS011;786;48.718;9.514;2024-03-22T12:11:43;1999.90;;;761.42;;
1585;SDS011;786;48.718;9.514;2024-03-22T12:14:09;1956.32;;;686.95;;
1585;SDS011;786;48.718;9.514;2024-03-22T12:16:35;1999.90;;;738.17;;
1585;SDS011;786;48.718;9.514;2024-03-22T12:19:01;1999.90;;;752.33;;
1585;SDS011;786;48.718;9.514;2024-03-22T12:21:26;1999.90;;;755.35;;
1585;SDS011;786;48.718;9.514;2024-03-22T12:23:54;1999.90;;;803.22;;
1585;SDS011;786;48.718;9.514;2024-03-22T12:26:19;1999.90;;;798.95;;
1585;SDS011;786;48.718;9.514;2024-03-22T12:28:46;1999.90;;;825.67;;
1585;SDS011;786;48.718;9.514;2024-03-22T12:31:11;1999.90;;;744.10;;
1585;SDS011;786;48.718;9.514;2024-03-22T12:33:38;1999.90;;;782.83;;
1585;SDS011;786;48.718;9.514;2024-03-22T12:36:03;1912.18;;;666.70;;
1585;SDS011;786;48.718;9.514;2024-03-22T12:38:30;1907.25;;;647.38;;
1585;SDS011;786;48.718;9.514;2024-03-22T12:40:57;1819.47;;;627.38;;
1585;SDS011;786;48.718;9.514;2024-03-22T12:43:23;1999.90;;;886.80;;
1585;SDS011;786;48.718;9.514;2024-03-22T12:45:49;1999.90;;;945.65;;
1585;SDS011;786;48.718;9.514;2024-03-22T12:48:16;1602.55;;;812.60;;
1585;SDS011;786;48.718;9.514;2024-03-22T12:50:42;7.40;;;6.90;;
1585;SDS011;786;48.718;9.514;2024-03-22T12:53:08;7.10;;;6.63;;
1585;SDS011;786;48.718;9.514;2024-03-22T12:55:33;8.07;;;7.22;;
1585;SDS011;786;48.718;9.514;2024-03-22T12:58:01;6.57;;;6.07;;
1585;SDS011;786;48.718;9.514;2024-03-22T13:00:27;9.52;;;5.05;;
1585;SDS011;786;48.718;9.514;2024-03-22T13:02:54;6.82;;;6.10;;
1585;SDS011;786;48.718;9.514;2024-03-22T13:05:19;6.45;;;5.25;;
1585;SDS011;786;48.718;9.514;2024-03-22T13:07:45;7.28;;;6.75;;
1585;SDS011;786;48.718;9.514;2024-03-22T13:10:11;6.40;;;5.90;;
1585;SDS011;786;48.718;9.514;2024-03-22T13:12:37;7.63;;;7.10;;
1585;SDS011;786;48.718;9.514;2024-03-22T13:15:04;6.68;;;6.18;;
1585;SDS011;786;48.718;9.514;2024-03-22T13:17:31;7.50;;;7.00;;
1585;SDS011;786;48.718;9.514;2024-03-22T13:19:56;6.05;;;5.53;;
1585;SDS011;786;48.718;9.514;2024-03-22T13:22:23;7.85;;;7.10;;
1585;SDS011;786;48.718;9.514;2024-03-22T13:24:48;5.53;;;4.90;;
1585;SDS011;786;48.718;9.514;2024-03-22T13:27:15;7.53;;;6.72;;
1585;SDS011;786;48.718;9.514;2024-03-22T13:29:41;7.47;;;6.90;;
1585;SDS011;786;48.718;9.514;2024-03-22T13:32:08;6.72;;;5.43;;
1585;SDS011;786;48.718;9.514;2024-03-22T13:34:34;7.28;;;6.68;;
1585;SDS011;786;48.718;9.514;2024-03-22T13:37:00;5.68;;;5.18;;
1585;SDS011;786;48.718;9.514;2024-03-22T13:39:26;6.90;;;6.30;;
1585;SDS011;786;48.718;9.514;2024-03-22T13:41:54;5.38;;;4.97;;
1585;SDS011;786;48.718;9.514;2024-03-22T13:44:19;6.65;;;5.30;;
1585;SDS011;786;48.718;9.514;2024-03-22T13:46:46;6.38;;;5.88;;
1585;SDS011;786;48.718;9.514;2024-03-22T13:49:14;8.48;;;7.88;;
1585;SDS011;786;48.718;9.514;2024-03-22T13:51:46;6.07;;;5.57;;
1585;SDS011;786;48.718;9.514;2024-03-22T13:54:12;7.65;;;7.10;;
1585;SDS011;786;48.718;9.514;2024-03-22T13:56:39;7.32;;;6.82;;
1585;SDS011;786;48.718;9.514;2024-03-22T13:59:04;6.78;;;5.90;;
1585;SDS011;786;48.718;9.514;2024-03-22T14:01:31;6.22;;;5.82;;
1585;SDS011;786;48.718;9.514;2024-03-22T14:03:57;5.10;;;4.57;;
1585;SDS011;786;48.718;9.514;2024-03-22T14:06:24;5.93;;;5.00;;
1585;SDS011;786;48.718;9.514;2024-03-22T14:08:50;5.55;;;4.47;;
1585;SDS011;786;48.718;9.514;2024-03-22T14:11:19;6.90;;;6.28;;
1585;SDS011;786;48.718;9.514;2024-03-22T14:13:44;6.47;;;5.88;;
1585;SDS011;786;48.718;9.514;2024-03-22T14:16:11;8.60;;;6.32;;
1585;SDS011;786;48.718;9.514;2024-03-22T14:18:36;7.35;;;6.72;;
1585;SDS011;786;48.718;9.514;2024-03-22T14:21:03;5.20;;;4.00;;
1585;SDS011;786;48.718;9.514;2024-03-22T14:23:29;4.82;;;4.40;;
1585;SDS011;786;48.718;9.514;2024-03-22T14:25:56;7.32;;;6.82;;
1585;SDS011;786;48.718;9.514;2024-03-22T14:28:21;3.85;;;3.53;;
1585;SDS011;786;48.718;9.514;2024-03-22T14:30:48;5.97;;;5.47;;
1585;SDS011;786;48.718;9.514;2024-03-22T14:33:13;5.40;;;5.05;;
1585;SDS011;786;48.718;9.514;2024-03-22T14:35:40;6.05;;;5.55;;
1585;SDS011;786;48.718;9.514;2024-03-22T14:38:05;8.73;;;5.40;;
1585;SDS011;786;48.718;9.514;2024-03-22T14:40:33;5.43;;;4.97;;
1585;SDS011;786;48.718;9.514;2024-03-22T14:43:01;5.45;;;5.00;;
1585;SDS011;786;48.718;9.514;2024-03-22T14:45:28;6.47;;;3.75;;
1585;SDS011;786;48.718;9.514;2024-03-22T14:47:53;5.43;;;4.10;;
1585;SDS011;786;48.718;9.514;2024-03-22T14:50:20;4.97;;;4.68;;
1585;SDS011;786;48.718;9.514;2024-03-22T14:52:47;4.65;;;4.20;;
1585;SDS011;786;48.718;9.514;2024-03-22T14:55:14;5.22;;;4.75;;
1585;SDS011;786;48.718;9.514;2024-03-22T14:57:41;6.15;;;5.55;;
1585;SDS011;786;48.718;9.514;2024-03-22T15:00:07;6.05;;;5.55;;
1585;SDS011;786;48.718;9.514;2024-03-22T15:02:35;5.05;;;4.57;;
1585;SDS011;786;48.718;9.514;2024-03-22T15:05:02;5.05;;;4.25;;